Time;durP1;ratioP1;P1;durP2;ratioP2;P2;SDS_P1;SDS_P2;PMS_P1;PMS_P2;Temp;Humidity;BMP_temperature;BMP_pressure;BME280_temperature;BME280_humidity;BME280_pressure;Samples;Min_cycle;Max_cycle;Signal;HPM_P1;HPM_P2
2023/06/04 00:01:46;;;;;;;3.63;2.87;;;;;;;;;;5114709;28;20207;-66
2023/06/04 00:04:14;;;;;;;2.87;2.63;;;;;;;;;;5122212;28;20208;-66
2023/06/04 00:06:43;;;;;;;5.40;3.13;;;;;;;;;;5116086;28;20241;-66
2023/06/04 00:09:13;;;;;;;5.63;3.10;;;;;;;;;;5113527;27;20273;-65
2023/06/04 00:11:41;;;;;;;3.40;3.10;;;;;;;;;;5121629;28;20245;-66
2023/06/04 00:14:09;;;;;;;7.87;3.37;;;;;;;;;;5121731;28;20277;-66
2023/06/04 00:16:37;;;;;;;3.23;2.93;;;;;;;;;;5121178;27;20236;-66
2023/06/04 00:19:06;;;;;;;6.50;2.93;;;;;;;;;;5121752;28;20232;-66
2023/06/04 00:21:34;;;;;;;3.23;2.90;;;;;;;;;;5121528;28;20208;-65
2023/06/04 00:24:03;;;;;;;3.13;2.67;;;;;;;;;;5121603;28;20211;-66
2023/06/04 00:26:32;;;;;;;4.83;3.10;;;;;;;;;;5121221;28;20299;-66
2023/06/04 00:29:01;;;;;;;4.60;2.70;;;;;;;;;;5121268;28;20664;-65
2023/06/04 00:31:29;;;;;;;5.97;2.60;;;;;;;;;;5121147;28;20232;-66
2023/06/04 00:33:57;;;;;;;3.10;2.60;;;;;;;;;;5121307;28;20212;-66
2023/06/04 00:36:25;;;;;;;2.93;2.67;;;;;;;;;;5121160;28;20312;-66
2023/06/04 00:38:54;;;;;;;4.23;2.80;;;;;;;;;;5120861;28;20328;-66
2023/06/04 00:41:22;;;;;;;3.93;2.90;;;;;;;;;;5121473;28;20223;-66
2023/06/04 00:43:55;;;;;;;3.10;2.70;;;;;;;;;;5120987;28;20232;-64
2023/06/04 00:46:25;;;;;;;6.73;3.23;;;;;;;;;;5120939;28;20765;-64
2023/06/04 00:48:54;;;;;;;8.03;3.33;;;;;;;;;;5120898;28;20204;-66
2023/06/04 00:51:22;;;;;;;3.90;2.90;;;;;;;;;;5121252;28;20209;-65
2023/06/04 00:53:51;;;;;;;4.87;2.93;;;;;;;;;;5120571;28;20245;-65
2023/06/04 00:56:19;;;;;;;2.90;2.70;;;;;;;;;;5121057;28;20229;-65
2023/06/04 00:58:47;;;;;;;3.00;2.70;;;;;;;;;;5120925;28;20227;-64
2023/06/04 01:01:22;;;;;;;4.67;3.00;;;;;;;;;;5120725;28;20215;-65
2023/06/04 01:03:52;;;;;;;2.83;2.60;;;;;;;;;;5120787;28;20216;-65
2023/06/04 01:06:23;;;;;;;3.33;2.30;;;;;;;;;;5120617;28;20229;-64
2023/06/04 01:08:54;;;;;;;2.93;2.63;;;;;;;;;;5120623;28;20289;-66
2023/06/04 01:11:31;;;;;;;2.40;2.20;;;;;;;;;;5120860;28;20201;-65
2023/06/04 01:13:59;;;;;;;2.57;2.27;;;;;;;;;;5120515;27;20208;-64
2023/06/04 01:16:31;;;;;;;2.40;2.20;;;;;;;;;;5120099;28;20225;-64
2023/06/04 01:19:00;;;;;;;3.07;2.60;;;;;;;;;;5120353;28;20288;-64
2023/06/04 01:21:30;;;;;;;4.53;2.80;;;;;;;;;;5120352;28;20268;-65
2023/06/04 01:24:01;;;;;;;4.13;2.53;;;;;;;;;;5120456;28;20268;-64
2023/06/04 01:26:30;;;;;;;4.40;2.80;;;;;;;;;;5120222;28;20242;-65
2023/06/04 01:28:59;;;;;;;2.63;2.30;;;;;;;;;;5120311;28;20694;-65
2023/06/04 01:31:28;;;;;;;3.20;2.80;;;;;;;;;;5120012;28;20215;-65
2023/06/04 01:33:58;;;;;;;8.17;2.77;;;;;;;;;;5120149;28;20219;-65
2023/06/04 01:36:26;;;;;;;3.47;3.00;;;;;;;;;;5119969;28;20231;-65
2023/06/04 01:38:55;;;;;;;2.73;2.47;;;;;;;;;;5120105;28;20311;-65
2023/06/04 01:41:23;;;;;;;3.73;2.47;;;;;;;;;;5120053;28;20663;-65
2023/06/04 01:43:51;;;;;;;2.50;2.30;;;;;;;;;;5120086;28;20569;-65
2023/06/04 01:46:19;;;;;;;2.60;2.40;;;;;;;;;;5119586;28;20235;-66
2023/06/04 01:48:48;;;;;;;2.73;2.33;;;;;;;;;;5120140;28;20219;-66
2023/06/04 01:51:18;;;;;;;3.10;2.50;;;;;;;;;;5119836;28;20618;-65
2023/06/04 01:53:46;;;;;;;3.43;2.70;;;;;;;;;;5119547;28;20297;-65
2023/06/04 01:56:14;;;;;;;3.87;2.63;;;;;;;;;;5119867;28;20229;-65
2023/06/04 01:58:42;;;;;;;3.80;2.43;;;;;;;;;;5119324;28;20202;-64
2023/06/04 02:01:11;;;;;;;3.27;2.57;;;;;;;;;;5119372;28;20206;-65
2023/06/04 02:03:40;;;;;;;5.40;2.60;;;;;;;;;;5119990;28;20236;-64
2023/06/04 02:06:08;;;;;;;3.53;2.17;;;;;;;;;;5119489;28;20590;-65
2023/06/04 02:08:40;;;;;;;2.90;2.70;;;;;;;;;;5108446;28;20292;-65
2023/06/04 02:11:08;;;;;;;2.97;2.67;;;;;;;;;;5119537;28;20209;-65
2023/06/04 02:13:36;;;;;;;7.67;3.83;;;;;;;;;;5119575;28;20231;-65
2023/06/04 02:16:05;;;;;;;4.73;3.27;;;;;;;;;;5119009;28;20228;-66
2023/06/04 02:18:33;;;;;;;3.50;2.80;;;;;;;;;;5119215;28;20667;-66
2023/06/04 02:21:01;;;;;;;3.57;2.53;;;;;;;;;;5119207;28;20232;-65
2023/06/04 02:23:29;;;;;;;5.50;2.83;;;;;;;;;;5119290;28;20292;-65
2023/06/04 02:25:59;;;;;;;2.67;2.43;;;;;;;;;;5119358;28;20305;-65
2023/06/04 02:28:27;;;;;;;3.33;2.33;;;;;;;;;;5119312;28;20284;-65
2023/06/04 02:30:55;;;;;;;3.03;2.73;;;;;;;;;;5118801;28;20201;-65
2023/06/04 02:33:24;;;;;;;2.53;2.33;;;;;;;;;;5119180;28;20211;-65
2023/06/04 02:35:52;;;;;;;4.27;2.43;;;;;;;;;;5119245;28;20229;-65
2023/06/04 02:38:20;;;;;;;3.30;2.70;;;;;;;;;;5118769;28;20785;-66
2023/06/04 02:40:48;;;;;;;4.30;2.63;;;;;;;;;;5119142;28;20341;-64
2023/06/04 02:43:17;;;;;;;3.90;2.63;;;;;;;;;;5119044;28;20205;-64
2023/06/04 02:45:46;;;;;;;5.50;2.90;;;;;;;;;;5118705;28;20235;-66
2023/06/04 02:48:14;;;;;;;2.73;2.47;;;;;;;;;;5118696;28;20608;-65
2023/06/04 02:50:43;;;;;;;3.00;2.70;;;;;;;;;;5118960;28;20201;-64
2023/06/04 02:53:11;;;;;;;3.33;2.80;;;;;;;;;;5118595;28;20244;-66
2023/06/04 02:55:39;;;;;;;3.77;2.80;;;;;;;;;;5118763;28;20234;-68
2023/06/04 02:58:08;;;;;;;5.03;2.70;;;;;;;;;;5118553;28;20280;-69
2023/06/04 03:00:38;;;;;;;2.93;2.63;;;;;;;;;;5118397;28;20224;-68
2023/06/04 03:03:06;;;;;;;3.10;2.80;;;;;;;;;;5104624;28;20209;-69
2023/06/04 03:05:36;;;;;;;3.17;2.87;;;;;;;;;;5118352;28;20238;-68
2023/06/04 03:08:05;;;;;;;3.53;3.20;;;;;;;;;;5118292;28;20301;-68
2023/06/04 03:10:33;;;;;;;3.20;2.90;;;;;;;;;;5117797;28;20197;-68
2023/06/04 03:13:01;;;;;;;6.23;3.03;;;;;;;;;;5118406;28;20213;-68
2023/06/04 03:15:29;;;;;;;5.13;3.57;;;;;;;;;;5118298;28;20235;-69
2023/06/04 03:17:59;;;;;;;3.90;3.40;;;;;;;;;;5118557;28;20218;-69
2023/06/04 03:20:27;;;;;;;6.80;3.83;;;;;;;;;;5118453;28;20311;-69
2023/06/04 03:22:55;;;;;;;3.77;3.47;;;;;;;;;;5118148;28;20573;-68
2023/06/04 03:25:23;;;;;;;5.03;3.97;;;;;;;;;;5118456;28;20232;-68
2023/06/04 03:27:52;;;;;;;4.50;3.90;;;;;;;;;;5118137;28;20204;-68
2023/06/04 03:30:20;;;;;;;4.23;3.83;;;;;;;;;;5118139;28;20208;-68
2023/06/04 03:32:48;;;;;;;6.03;3.97;;;;;;;;;;5118387;28;20211;-68
2023/06/04 03:35:18;;;;;;;4.27;3.70;;;;;;;;;;5118026;28;20311;-68
2023/06/04 03:37:50;;;;;;;3.97;3.47;;;;;;;;;;5118125;28;20232;-68
2023/06/04 03:40:18;;;;;;;5.17;3.63;;;;;;;;;;5117949;28;20237;-68
2023/06/04 03:42:46;;;;;;;4.67;3.67;;;;;;;;;;5117994;28;20652;-68
2023/06/04 03:45:14;;;;;;;5.40;4.17;;;;;;;;;;5118034;28;20220;-68
2023/06/04 03:47:42;;;;;;;3.73;3.43;;;;;;;;;;5117991;28;20671;-68
2023/06/04 03:50:11;;;;;;;5.67;4.27;;;;;;;;;;5118353;28;20201;-68
2023/06/04 03:52:40;;;;;;;6.50;4.07;;;;;;;;;;5117980;28;20240;-69
2023/06/04 03:55:09;;;;;;;6.33;4.63;;;;;;;;;;5118050;28;20236;-68
2023/06/04 03:57:38;;;;;;;6.60;4.60;;;;;;;;;;5117716;28;20212;-68
2023/06/04 04:00:08;;;;;;;5.63;4.37;;;;;;;;;;5117807;28;20296;-67
2023/06/04 04:02:36;;;;;;;6.03;5.30;;;;;;;;;;5118067;28;20205;-69
2023/06/04 04:05:04;;;;;;;6.63;4.70;;;;;;;;;;5118103;28;20219;-69
2023/06/04 04:07:32;;;;;;;10.13;5.37;;;;;;;;;;5118005;28;20254;-69
2023/06/04 04:10:02;;;;;;;7.90;4.47;;;;;;;;;;5108265;28;20197;-67
2023/06/04 04:12:30;;;;;;;7.23;4.50;;;;;;;;;;5117134;28;20292;-69
2023/06/04 04:14:59;;;;;;;6.03;4.80;;;;;;;;;;5117764;28;20211;-69
2023/06/04 04:17:27;;;;;;;7.33;4.53;;;;;;;;;;5117629;28;20211;-71
2023/06/04 04:19:55;;;;;;;6.07;4.40;;;;;;;;;;5117679;28;20201;-71
2023/06/04 04:22:23;;;;;;;6.07;4.37;;;;;;;;;;5124490;27;20197;-70
2023/06/04 04:24:51;;;;;;;6.27;4.10;;;;;;;;;;5130837;27;20205;-70
2023/06/04 04:27:22;;;;;;;7.17;4.73;;;;;;;;;;5131170;27;20208;-70
2023/06/04 04:29:50;;;;;;;5.60;4.23;;;;;;;;;;5127009;27;20886;-71
2023/06/04 04:32:19;;;;;;;6.13;4.27;;;;;;;;;;5121140;28;20716;-71
2023/06/04 04:34:54;;;;;;;8.07;4.07;;;;;;;;;;5121498;28;20215;-71
2023/06/04 04:37:23;;;;;;;7.10;5.27;;;;;;;;;;5121307;28;20215;-70
2023/06/04 04:39:52;;;;;;;6.40;4.50;;;;;;;;;;5124979;27;20200;-71
2023/06/04 04:42:22;;;;;;;5.13;4.13;;;;;;;;;;5130361;27;20213;-71
2023/06/04 04:44:50;;;;;;;5.00;4.47;;;;;;;;;;5130864;27;20596;-70
2023/06/04 04:47:18;;;;;;;5.33;4.77;;;;;;;;;;5131750;27;20200;-70
2023/06/04 04:49:49;;;;;;;5.47;4.40;;;;;;;;;;5123544;27;20197;-70
2023/06/04 04:52:17;;;;;;;4.97;4.33;;;;;;;;;;5121099;28;20204;-70
2023/06/04 04:54:46;;;;;;;4.57;4.17;;;;;;;;;;5114673;28;20205;-70
2023/06/04 04:57:14;;;;;;;6.73;4.53;;;;;;;;;;5110277;28;20197;-70
2023/06/04 04:59:44;;;;;;;5.43;4.53;;;;;;;;;;5111368;27;20219;-70
2023/06/04 05:02:12;;;;;;;5.87;4.47;;;;;;;;;;5106378;27;20227;-70
2023/06/04 05:04:40;;;;;;;7.63;4.77;;;;;;;;;;5101145;28;20249;-70
2023/06/04 05:07:09;;;;;;;6.77;5.53;;;;;;;;;;5108879;27;20248;-70
2023/06/04 05:09:37;;;;;;;6.77;4.53;;;;;;;;;;5114882;27;20208;-70
2023/06/04 05:12:06;;;;;;;6.73;4.47;;;;;;;;;;5120818;27;20200;-70
2023/06/04 05:14:35;;;;;;;6.67;4.77;;;;;;;;;;5118397;28;20215;-70
2023/06/04 05:17:06;;;;;;;5.83;4.97;;;;;;;;;;5120100;27;20233;-70
2023/06/04 05:19:34;;;;;;;5.33;4.70;;;;;;;;;;5120670;28;20212;-71
2023/06/04 05:22:02;;;;;;;7.53;5.07;;;;;;;;;;5120285;28;20267;-70
2023/06/04 05:24:32;;;;;;;6.43;3.90;;;;;;;;;;5120132;28;20205;-70
2023/06/04 05:27:00;;;;;;;5.23;4.30;;;;;;;;;;5119826;28;20229;-70
2023/06/04 05:29:28;;;;;;;6.17;4.17;;;;;;;;;;5118509;28;20209;-70
2023/06/04 05:31:56;;;;;;;8.07;4.77;;;;;;;;;;5118094;28;20631;-70
2023/06/04 05:34:26;;;;;;;7.13;4.13;;;;;;;;;;5117508;28;20673;-70
2023/06/04 05:36:57;;;;;;;6.10;4.10;;;;;;;;;;5118177;28;20229;-70
2023/06/04 05:39:25;;;;;;;5.57;4.40;;;;;;;;;;5118524;28;20295;-70
2023/06/04 05:41:53;;;;;;;9.10;4.23;;;;;;;;;;5118287;28;20221;-71
2023/06/04 05:44:21;;;;;;;5.03;4.00;;;;;;;;;;5120081;28;20231;-70
2023/06/04 05:46:50;;;;;;;5.17;4.07;;;;;;;;;;5119577;27;20233;-70
2023/06/04 05:49:19;;;;;;;7.67;4.57;;;;;;;;;;5120191;27;20201;-70
2023/06/04 05:51:49;;;;;;;5.37;3.97;;;;;;;;;;5120087;28;20208;-70
2023/06/04 05:54:17;;;;;;;4.80;3.43;;;;;;;;;;5119616;28;20320;-70
2023/06/04 05:56:45;;;;;;;4.13;3.67;;;;;;;;;;5119676;28;20236;-70
2023/06/04 05:59:14;;;;;;;8.43;3.70;;;;;;;;;;5119897;28;20197;-70
2023/06/04 06:01:43;;;;;;;4.53;3.70;;;;;;;;;;5119551;28;20220;-70
2023/06/04 06:04:12;;;;;;;4.80;3.37;;;;;;;;;;5119877;28;20209;-70
2023/06/04 06:06:40;;;;;;;4.43;3.60;;;;;;;;;;5119489;28;20221;-71
2023/06/04 06:09:10;;;;;;;5.43;4.10;;;;;;;;;;5117093;28;20205;-70
2023/06/04 06:11:38;;;;;;;4.63;3.90;;;;;;;;;;5119750;28;20200;-71
2023/06/04 06:14:06;;;;;;;4.90;3.53;;;;;;;;;;5124497;27;20196;-71
2023/06/04 06:16:35;;;;;;;4.63;3.70;;;;;;;;;;5121694;27;20220;-71
2023/06/04 06:19:03;;;;;;;6.07;3.93;;;;;;;;;;5123114;27;20196;-71
2023/06/04 06:21:31;;;;;;;3.70;3.30;;;;;;;;;;5119439;27;20225;-71
2023/06/04 06:23:59;;;;;;;5.13;3.77;;;;;;;;;;5121300;27;20287;-71
2023/06/04 06:26:29;;;;;;;3.40;3.10;;;;;;;;;;5117368;28;20223;-71
2023/06/04 06:28:58;;;;;;;4.50;3.57;;;;;;;;;;5115835;27;20197;-71
2023/06/04 06:31:26;;;;;;;3.63;3.33;;;;;;;;;;5116892;28;20208;-71
2023/06/04 06:33:55;;;;;;;4.83;4.17;;;;;;;;;;5121444;27;20283;-71
2023/06/04 06:36:23;;;;;;;4.53;3.50;;;;;;;;;;5126714;27;20645;-71
2023/06/04 06:38:52;;;;;;;4.20;3.80;;;;;;;;;;5119353;27;20653;-71
2023/06/04 06:41:20;;;;;;;4.17;3.77;;;;;;;;;;5118667;28;20205;-71
2023/06/04 06:43:50;;;;;;;7.80;4.23;;;;;;;;;;5117302;27;20534;-67
2023/06/04 06:46:18;;;;;;;4.20;3.60;;;;;;;;;;5118227;28;20573;-67
2023/06/04 06:48:48;;;;;;;3.57;3.20;;;;;;;;;;5119191;27;20280;-67
2023/06/04 06:51:16;;;;;;;6.17;4.20;;;;;;;;;;5117929;27;20232;-67
2023/06/04 06:53:45;;;;;;;4.60;3.53;;;;;;;;;;5117622;28;20602;-67
2023/06/04 06:56:14;;;;;;;5.93;4.30;;;;;;;;;;5117777;28;20256;-67
2023/06/04 06:58:43;;;;;;;4.53;4.10;;;;;;;;;;5110931;28;20201;-66
2023/06/04 07:01:12;;;;;;;5.33;3.73;;;;;;;;;;5115066;28;20220;-69
2023/06/04 07:03:41;;;;;;;4.87;3.60;;;;;;;;;;5103073;28;20217;-69
2023/06/04 07:06:09;;;;;;;11.13;3.97;;;;;;;;;;5133655;27;20686;-68
2023/06/04 07:08:37;;;;;;;5.07;4.10;;;;;;;;;;5122518;27;20207;-68
2023/06/04 07:11:06;;;;;;;6.90;3.80;;;;;;;;;;5114612;28;20212;-69
2023/06/04 07:13:35;;;;;;;5.30;3.73;;;;;;;;;;5109901;28;20579;-70
2023/06/04 07:16:03;;;;;;;4.73;3.40;;;;;;;;;;5117930;28;20282;-71
2023/06/04 07:18:33;;;;;;;5.17;4.17;;;;;;;;;;5118425;28;20292;-70
2023/06/04 07:21:01;;;;;;;5.23;3.20;;;;;;;;;;5113429;27;20200;-71
2023/06/04 07:23:29;;;;;;;5.87;3.70;;;;;;;;;;5138759;27;20219;-72
2023/06/04 07:25:58;;;;;;;3.73;3.40;;;;;;;;;;5134523;27;20220;-72
2023/06/04 07:28:26;;;;;;;5.13;3.17;;;;;;;;;;5111356;28;20233;-72
2023/06/04 07:30:54;;;;;;;4.47;3.03;;;;;;;;;;5118159;28;20287;-71
2023/06/04 07:33:22;;;;;;;7.10;3.40;;;;;;;;;;5118149;28;20207;-71
2023/06/04 07:35:52;;;;;;;7.50;3.20;;;;;;;;;;5118012;28;20288;-72
2023/06/04 07:38:20;;;;;;;8.77;3.60;;;;;;;;;;5117728;28;20209;-73
2023/06/04 07:40:48;;;;;;;3.60;3.13;;;;;;;;;;5117935;28;20740;-72
2023/06/04 07:43:16;;;;;;;5.10;3.47;;;;;;;;;;5117728;28;20246;-71
2023/06/04 07:45:45;;;;;;;4.17;3.07;;;;;;;;;;5116069;28;20216;-71
2023/06/04 07:48:13;;;;;;;4.47;3.17;;;;;;;;;;5119785;28;20196;-73
2023/06/04 07:50:42;;;;;;;5.87;3.50;;;;;;;;;;5117620;28;20196;-72
2023/06/04 07:53:11;;;;;;;5.37;3.37;;;;;;;;;;5121368;28;20706;-71
2023/06/04 07:55:39;;;;;;;5.83;3.67;;;;;;;;;;5117414;28;20228;-72
2023/06/04 07:58:08;;;;;;;4.93;3.97;;;;;;;;;;5114933;27;20240;-72
2023/06/04 08:00:36;;;;;;;4.50;3.90;;;;;;;;;;5115395;28;20253;-72
2023/06/04 08:03:04;;;;;;;6.43;3.90;;;;;;;;;;5117706;28;20239;-72
2023/06/04 08:05:33;;;;;;;5.57;4.17;;;;;;;;;;5121079;28;20228;-72
2023/06/04 08:08:03;;;;;;;5.87;3.57;;;;;;;;;;5121680;28;20292;-70
2023/06/04 08:10:33;;;;;;;8.20;4.17;;;;;;;;;;5121856;28;20205;-71
2023/06/04 08:13:01;;;;;;;5.43;4.00;;;;;;;;;;5121504;28;20546;-72
2023/06/04 08:15:29;;;;;;;6.13;4.83;;;;;;;;;;5121489;28;20229;-72
2023/06/04 08:17:58;;;;;;;10.47;4.40;;;;;;;;;;5122042;28;20296;-71
2023/06/04 08:20:26;;;;;;;4.60;4.20;;;;;;;;;;5110182;28;20729;-71
2023/06/04 08:22:54;;;;;;;4.80;3.87;;;;;;;;;;5121466;28;20263;-71
2023/06/04 08:25:22;;;;;;;4.63;3.40;;;;;;;;;;5121386;28;20228;-71
2023/06/04 08:27:52;;;;;;;7.63;3.70;;;;;;;;;;5121657;28;20242;-72
2023/06/04 08:30:21;;;;;;;5.20;3.80;;;;;;;;;;5121379;28;20254;-71
2023/06/04 08:32:50;;;;;;;4.63;3.37;;;;;;;;;;5121516;28;20195;-71
2023/06/04 08:35:18;;;;;;;3.77;3.47;;;;;;;;;;5121284;27;20705;-71
2023/06/04 08:37:46;;;;;;;5.83;4.07;;;;;;;;;;5129029;27;20562;-71
2023/06/04 08:40:14;;;;;;;6.03;4.10;;;;;;;;;;5122830;27;20207;-71
2023/06/04 08:42:44;;;;;;;4.67;3.50;;;;;;;;;;5123280;27;20219;-71
2023/06/04 08:45:15;;;;;;;4.73;4.07;;;;;;;;;;5120937;28;20745;-72
2023/06/04 08:47:45;;;;;;;4.53;4.03;;;;;;;;;;5121621;27;20209;-72
2023/06/04 08:50:13;;;;;;;6.67;3.90;;;;;;;;;;5122058;27;20289;-72
2023/06/04 08:52:42;;;;;;;5.70;4.13;;;;;;;;;;5121506;27;20314;-73
2023/06/04 08:55:13;;;;;;;6.17;4.10;;;;;;;;;;5118561;28;20222;-70
2023/06/04 08:57:41;;;;;;;5.53;3.80;;;;;;;;;;5122655;27;20213;-71
2023/06/04 09:00:10;;;;;;;5.97;3.50;;;;;;;;;;5120828;27;20197;-71
2023/06/04 09:02:40;;;;;;;4.93;4.23;;;;;;;;;;5121684;27;20532;-72
2023/06/04 09:05:09;;;;;;;4.57;3.67;;;;;;;;;;5119896;27;20672;-72
2023/06/04 09:07:39;;;;;;;6.87;4.63;;;;;;;;;;5121613;28;20696;-71
2023/06/04 09:10:08;;;;;;;4.27;3.80;;;;;;;;;;5115027;28;20566;-71
2023/06/04 09:12:43;;;;;;;5.47;4.40;;;;;;;;;;5121528;27;20198;-72
2023/06/04 09:15:11;;;;;;;5.70;3.63;;;;;;;;;;5117895;28;20309;-73
2023/06/04 09:17:41;;;;;;;4.17;3.53;;;;;;;;;;5121249;27;20199;-72
2023/06/04 09:20:19;;;;;;;4.43;3.57;;;;;;;;;;5118643;27;20232;-71
2023/06/04 09:22:47;;;;;;;5.70;4.20;;;;;;;;;;5117411;27;20681;-72
2023/06/04 09:25:22;;;;;;;5.53;3.70;;;;;;;;;;5120004;28;20239;-72
2023/06/04 09:27:50;;;;;;;5.30;3.67;;;;;;;;;;5119529;27;20560;-72
2023/06/04 09:30:18;;;;;;;6.50;3.80;;;;;;;;;;5138335;27;20215;-73
2023/06/04 09:32:48;;;;;;;3.73;3.43;;;;;;;;;;5123480;27;20210;-72
2023/06/04 09:35:17;;;;;;;4.73;3.80;;;;;;;;;;5122535;27;20222;-73
2023/06/04 09:37:53;;;;;;;3.60;3.10;;;;;;;;;;5128172;27;20290;-73
2023/06/04 09:40:21;;;;;;;3.37;3.07;;;;;;;;;;5129448;27;20212;-73
2023/06/04 09:42:54;;;;;;;4.83;3.13;;;;;;;;;;5129127;27;20566;-73
2023/06/04 09:45:32;;;;;;;3.47;2.90;;;;;;;;;;5124958;27;20241;-74
2023/06/04 09:48:02;;;;;;;3.10;2.80;;;;;;;;;;5126824;27;20233;-74
2023/06/04 09:50:38;;;;;;;5.30;2.97;;;;;;;;;;5131440;27;20540;-73
2023/06/04 09:53:14;;;;;;;3.63;2.93;;;;;;;;;;5140221;27;20315;-73
2023/06/04 09:55:42;;;;;;;4.87;2.80;;;;;;;;;;5137365;27;20234;-73
2023/06/04 09:58:11;;;;;;;6.30;2.50;;;;;;;;;;5129338;27;20690;-74
2023/06/04 10:00:41;;;;;;;3.57;2.57;;;;;;;;;;5128121;27;20675;-74
2023/06/04 10:03:13;;;;;;;3.10;2.63;;;;;;;;;;5126228;27;20202;-73
2023/06/04 10:05:41;;;;;;;2.80;2.47;;;;;;;;;;5123160;27;20228;-73
2023/06/04 10:08:10;;;;;;;4.07;2.37;;;;;;;;;;5122092;27;20202;-72
2023/06/04 10:10:39;;;;;;;3.13;2.13;;;;;;;;;;5119421;28;20204;-74
2023/06/04 10:13:10;;;;;;;2.30;1.90;;;;;;;;;;5120349;27;20205;-72
2023/06/04 10:15:39;;;;;;;2.73;2.53;;;;;;;;;;5121331;27;20233;-73
2023/06/04 10:18:22;;;;;;;2.10;1.90;;;;;;;;;;5119041;28;20671;-70
2023/06/04 10:20:56;;;;;;;3.73;2.03;;;;;;;;;;5116285;28;20657;-70
2023/06/04 10:23:24;;;;;;;2.10;1.90;;;;;;;;;;5134619;27;20211;-74
2023/06/04 10:25:53;;;;;;;2.73;1.93;;;;;;;;;;5136321;27;20213;-74
2023/06/04 10:28:24;;;;;;;3.73;2.70;;;;;;;;;;5118520;28;20239;-73
2023/06/04 10:30:52;;;;;;;2.60;2.03;;;;;;;;;;5120138;27;20198;-73
2023/06/04 10:33:24;;;;;;;3.73;2.10;;;;;;;;;;5117783;27;20560;-73
2023/06/04 10:35:54;;;;;;;1.63;1.53;;;;;;;;;;5121539;27;20248;-71
2023/06/04 10:38:24;;;;;;;1.80;1.70;;;;;;;;;;5121511;27;20241;-71
2023/06/04 10:40:52;;;;;;;1.70;1.53;;;;;;;;;;5139755;27;20206;-72
2023/06/04 10:43:21;;;;;;;2.60;2.40;;;;;;;;;;5117868;27;20202;-72
2023/06/04 10:45:49;;;;;;;2.73;2.50;;;;;;;;;;5117285;28;20245;-71
2023/06/04 10:48:18;;;;;;;2.67;2.40;;;;;;;;;;5118852;28;20265;-69
2023/06/04 10:50:49;;;;;;;3.63;2.57;;;;;;;;;;5115868;28;20210;-70
2023/06/04 10:53:18;;;;;;;2.70;2.50;;;;;;;;;;5118313;27;20230;-70
2023/06/04 10:55:48;;;;;;;3.37;3.00;;;;;;;;;;5120310;27;20623;-71
2023/06/04 10:58:20;;;;;;;2.70;2.50;;;;;;;;;;5112147;28;20197;-70
2023/06/04 11:00:53;;;;;;;3.23;2.57;;;;;;;;;;5115689;28;20276;-73
2023/06/04 11:03:22;;;;;;;2.67;2.40;;;;;;;;;;5116279;27;20256;-72
2023/06/04 11:05:52;;;;;;;5.67;2.50;;;;;;;;;;5104877;28;20591;-72
2023/06/04 11:08:28;;;;;;;2.53;2.30;;;;;;;;;;5124353;27;20267;-73
2023/06/04 11:10:58;;;;;;;3.73;3.03;;;;;;;;;;5107340;28;20199;-70
2023/06/04 11:13:28;;;;;;;3.10;2.80;;;;;;;;;;5118308;28;20613;-70
2023/06/04 11:15:57;;;;;;;3.10;2.80;;;;;;;;;;5113307;27;20214;-68
2023/06/04 11:18:26;;;;;;;4.30;2.90;;;;;;;;;;5118048;28;20630;-71
2023/06/04 11:24:05;;;;;;;3.43;3.13;;;;;;;;;;5112022;28;20684;-62
2023/06/04 11:26:38;;;;;;;4.80;3.23;;;;;;;;;;5118991;28;20218;-64
2023/06/04 11:29:11;;;;;;;4.27;3.37;;;;;;;;;;5119355;28;20627;-64
2023/06/04 11:31:43;;;;;;;4.23;2.97;;;;;;;;;;5119525;27;20211;-65
2023/06/04 11:34:13;;;;;;;3.90;3.20;;;;;;;;;;5115595;28;20667;-64
2023/06/04 11:36:41;;;;;;;3.27;2.80;;;;;;;;;;5116719;28;20222;-64
2023/06/04 11:39:15;;;;;;;3.03;2.80;;;;;;;;;;5115520;28;20648;-64
2023/06/04 11:41:47;;;;;;;3.90;2.67;;;;;;;;;;5112159;28;20254;-66
2023/06/04 11:44:15;;;;;;;3.53;3.23;;;;;;;;;;5117109;28;20765;-64
2023/06/04 11:46:44;;;;;;;3.17;2.87;;;;;;;;;;5114082;28;20302;-64
2023/06/04 11:49:13;;;;;;;3.33;3.07;;;;;;;;;;5113611;28;20205;-64
2023/06/04 11:51:46;;;;;;;4.37;2.90;;;;;;;;;;5117771;28;20197;-64
2023/06/04 11:54:14;;;;;;;4.50;3.40;;;;;;;;;;5118691;27;20764;-64
2023/06/04 11:56:44;;;;;;;3.30;3.00;;;;;;;;;;5115347;28;20230;-64
2023/06/04 11:59:14;;;;;;;3.30;2.50;;;;;;;;;;5116988;28;20199;-64
2023/06/04 12:01:42;;;;;;;3.90;3.10;;;;;;;;;;5118920;28;20623;-64
2023/06/04 12:04:14;;;;;;;3.40;3.10;;;;;;;;;;5118631;28;20754;-65
2023/06/04 12:06:51;;;;;;;6.70;6.10;;;;;;;;;;5117260;28;20222;-64
2023/06/04 12:09:23;;;;;;;3.30;3.03;;;;;;;;;;5116434;28;20209;-64
2023/06/04 12:11:51;;;;;;;3.83;2.57;;;;;;;;;;5118361;28;20285;-64
2023/06/04 12:14:20;;;;;;;5.00;2.90;;;;;;;;;;5118732;28;20660;-64
2023/06/04 12:16:56;;;;;;;3.50;2.80;;;;;;;;;;5108930;28;20801;-64
2023/06/04 12:19:26;;;;;;;3.47;2.93;;;;;;;;;;5119729;28;20275;-64
2023/06/04 12:22:02;;;;;;;3.17;2.77;;;;;;;;;;5116678;28;20252;-65
2023/06/04 12:24:31;;;;;;;4.97;2.60;;;;;;;;;;5115126;28;20642;-71
2023/06/04 12:27:03;;;;;;;3.17;2.63;;;;;;;;;;5117084;28;20224;-70
2023/06/04 12:29:32;;;;;;;3.23;2.93;;;;;;;;;;5117206;28;20206;-71
2023/06/04 12:32:04;;;;;;;3.67;2.80;;;;;;;;;;5117009;28;20286;-71
2023/06/04 12:34:32;;;;;;;3.73;2.57;;;;;;;;;;5117510;28;20237;-71
2023/06/04 12:37:01;;;;;;;2.60;2.40;;;;;;;;;;5117202;28;20228;-71
2023/06/04 12:39:29;;;;;;;3.33;2.90;;;;;;;;;;5117526;28;20207;-72
2023/06/04 12:41:57;;;;;;;2.87;2.57;;;;;;;;;;5117815;28;20212;-72
2023/06/04 12:44:25;;;;;;;3.53;2.80;;;;;;;;;;5121297;28;20211;-72
2023/06/04 12:46:55;;;;;;;2.77;2.23;;;;;;;;;;5119958;28;20220;-72
2023/06/04 12:49:23;;;;;;;3.47;2.77;;;;;;;;;;5120945;27;20566;-72
2023/06/04 12:51:51;;;;;;;3.40;2.47;;;;;;;;;;5119457;28;20264;-72
2023/06/04 12:54:20;;;;;;;5.83;2.80;;;;;;;;;;5118670;28;20239;-72
2023/06/04 12:56:48;;;;;;;3.77;2.70;;;;;;;;;;5119220;28;20231;-72
2023/06/04 12:59:16;;;;;;;2.60;2.40;;;;;;;;;;5118931;28;20720;-72
2023/06/04 13:01:44;;;;;;;2.77;2.37;;;;;;;;;;5119129;28;20208;-72
2023/06/04 13:04:14;;;;;;;3.70;2.57;;;;;;;;;;5119006;28;20622;-72
2023/06/04 13:06:42;;;;;;;2.57;2.37;;;;;;;;;;5118796;28;20237;-74
2023/06/04 13:09:10;;;;;;;3.20;2.57;;;;;;;;;;5119650;28;20211;-72
2023/06/04 13:11:39;;;;;;;2.50;2.30;;;;;;;;;;5120904;28;20215;-73
2023/06/04 13:14:07;;;;;;;2.87;2.53;;;;;;;;;;5120816;28;20271;-72
2023/06/04 13:16:36;;;;;;;2.83;2.13;;;;;;;;;;5119961;28;20311;-67
2023/06/04 13:19:04;;;;;;;2.97;2.60;;;;;;;;;;5120528;28;20212;-67
2023/06/04 13:21:34;;;;;;;5.47;2.80;;;;;;;;;;5124359;27;20200;-65
2023/06/04 13:24:02;;;;;;;3.03;2.83;;;;;;;;;;5120531;27;20292;-66
2023/06/04 13:26:31;;;;;;;2.43;2.23;;;;;;;;;;5120241;28;20265;-65
2023/06/04 13:28:59;;;;;;;2.97;2.73;;;;;;;;;;5106544;28;20649;-66
2023/06/04 13:31:27;;;;;;;2.93;2.63;;;;;;;;;;5119686;27;20198;-65
2023/06/04 13:33:55;;;;;;;3.40;3.10;;;;;;;;;;5119928;27;20198;-65
2023/06/04 13:36:24;;;;;;;2.73;2.53;;;;;;;;;;5121213;27;20221;-65
2023/06/04 13:38:54;;;;;;;5.47;2.73;;;;;;;;;;5121620;27;20568;-65
2023/06/04 13:41:23;;;;;;;2.80;2.60;;;;;;;;;;5118708;27;20199;-66
2023/06/04 13:43:51;;;;;;;3.87;2.80;;;;;;;;;;5120595;27;20681;-64
2023/06/04 13:46:19;;;;;;;3.60;2.50;;;;;;;;;;5116997;27;20313;-66
2023/06/04 13:48:47;;;;;;;3.30;3.00;;;;;;;;;;5121007;27;20202;-64
2023/06/04 13:51:15;;;;;;;3.10;2.70;;;;;;;;;;5119653;28;20207;-64
2023/06/04 13:53:43;;;;;;;2.70;2.47;;;;;;;;;;5118879;28;20273;-69
2023/06/04 13:56:13;;;;;;;3.37;3.07;;;;;;;;;;5119683;28;20222;-69
2023/06/04 13:58:41;;;;;;;3.57;2.93;;;;;;;;;;5120083;28;20206;-69
2023/06/04 14:01:09;;;;;;;3.03;2.63;;;;;;;;;;5119606;28;20210;-72
2023/06/04 14:03:38;;;;;;;3.30;2.93;;;;;;;;;;5119811;28;20239;-72
2023/06/04 14:06:06;;;;;;;3.83;2.67;;;;;;;;;;5119382;28;20289;-72
2023/06/04 14:08:34;;;;;;;5.60;2.80;;;;;;;;;;5119174;28;20554;-72
2023/06/04 14:11:03;;;;;;;2.60;2.40;;;;;;;;;;5119591;28;20215;-72
2023/06/04 14:13:32;;;;;;;2.93;2.60;;;;;;;;;;5119537;28;20219;-72
2023/06/04 14:16:00;;;;;;;2.93;2.73;;;;;;;;;;5119078;28;20233;-71
2023/06/04 14:18:29;;;;;;;3.00;2.70;;;;;;;;;;5107987;28;20204;-71
2023/06/04 14:20:57;;;;;;;4.00;2.80;;;;;;;;;;5119515;28;20206;-71
2023/06/04 14:23:25;;;;;;;2.77;2.57;;;;;;;;;;5119239;28;20220;-71
2023/06/04 14:25:53;;;;;;;3.60;2.60;;;;;;;;;;5119268;28;20259;-71
2023/06/04 14:28:21;;;;;;;3.07;2.37;;;;;;;;;;5119332;28;20225;-72
2023/06/04 14:30:51;;;;;;;2.63;2.43;;;;;;;;;;5119185;28;20290;-72
2023/06/04 14:33:19;;;;;;;3.93;3.10;;;;;;;;;;5119279;28;20206;-72
2023/06/04 14:35:47;;;;;;;2.63;2.43;;;;;;;;;;5118993;28;20231;-72
2023/06/04 14:38:16;;;;;;;3.90;2.37;;;;;;;;;;5118802;28;20205;-72
2023/06/04 14:40:44;;;;;;;5.20;2.60;;;;;;;;;;5119159;28;20294;-72
2023/06/04 14:43:12;;;;;;;3.10;2.80;;;;;;;;;;5118806;28;20240;-72
2023/06/04 14:45:40;;;;;;;2.90;2.60;;;;;;;;;;5118570;28;20633;-72
2023/06/04 14:48:10;;;;;;;2.77;2.57;;;;;;;;;;5118622;28;20291;-71
2023/06/04 14:50:43;;;;;;;2.80;2.50;;;;;;;;;;5118777;28;20208;-72
2023/06/04 14:53:12;;;;;;;4.50;2.53;;;;;;;;;;5118512;28;20244;-72
2023/06/04 14:55:40;;;;;;;3.83;2.60;;;;;;;;;;5118453;28;20237;-72
2023/06/04 14:58:08;;;;;;;3.33;2.63;;;;;;;;;;5118832;28;20202;-72